createdAt,value
2019-04-25T00:00:24.700Z,14.52
2019-04-25T00:01:03.336Z,14.51
2019-04-25T00:01:44.657Z,14.51
2019-04-25T00:02:34.478Z,14.48
2019-04-25T00:03:12.211Z,14.43
2019-04-25T00:03:48.422Z,14.39
2019-04-25T00:04:24.533Z,14.40
2019-04-25T00:05:01.335Z,14.41
2019-04-25T00:05:38.765Z,14.43
2019-04-25T00:06:15.924Z,14.43
2019-04-25T00:06:52.238Z,14.44
2019-04-25T00:07:28.639Z,14.44
2019-04-25T00:08:05.196Z,14.44
2019-04-25T00:08:43.074Z,14.47
2019-04-25T00:09:21.914Z,14.45
2019-04-25T00:09:58.087Z,14.44
2019-04-25T00:10:34.125Z,14.43
2019-04-25T00:11:11.674Z,14.43
2019-04-25T00:11:49.004Z,14.43
2019-04-25T00:12:25.127Z,14.42
2019-04-25T00:13:03.587Z,14.41
2019-04-25T00:13:39.737Z,14.41
2019-04-25T00:14:16.093Z,14.41
2019-04-25T00:14:52.210Z,14.41
2019-04-25T00:15:29.474Z,14.41
2019-04-25T00:16:06.464Z,14.41
2019-04-25T00:16:45.132Z,14.40
2019-04-25T00:17:21.502Z,14.39
2019-04-25T00:17:57.548Z,14.38
2019-04-25T00:18:33.665Z,14.39
2019-04-25T00:19:09.805Z,14.38
2019-04-25T00:19:46.438Z,14.36
2019-04-25T00:20:24.777Z,14.37
2019-04-25T00:21:02.447Z,14.35
2019-04-25T00:21:40.911Z,14.34
2019-04-25T00:22:22.332Z,14.32
2019-04-25T00:23:01.916Z,14.29
2019-04-25T00:23:39.369Z,14.26
2019-04-25T00:24:23.818Z,14.25
2019-04-25T00:25:15.099Z,14.26
2019-04-25T00:25:52.807Z,14.22
2019-04-25T00:26:33.489Z,14.21
2019-04-25T00:27:08.990Z,14.15
2019-04-25T00:27:46.019Z,13.89
2019-04-25T00:28:22.320Z,14.01
2019-04-25T00:28:58.422Z,14.08
2019-04-25T00:29:34.679Z,14.13
2019-04-25T00:30:11.329Z,14.17
2019-04-25T00:30:48.067Z,14.19
2019-04-25T00:31:26.040Z,14.20
2019-04-25T00:32:02.235Z,14.21
2019-04-25T00:32:38.345Z,14.21
2019-04-25T00:33:14.472Z,14.23
2019-04-25T00:33:52.493Z,14.22
2019-04-25T00:34:28.405Z,14.23
2019-04-25T00:35:05.798Z,14.22
2019-04-25T00:35:43.525Z,14.23
2019-04-25T00:36:19.751Z,14.22
2019-04-25T00:36:55.831Z,14.23
2019-04-25T00:37:32.309Z,14.25
2019-04-25T00:38:08.465Z,14.26
2019-04-25T00:38:46.568Z,14.26
2019-04-25T00:39:22.519Z,14.25
2019-04-25T00:39:58.597Z,14.26
2019-04-25T00:40:35.026Z,14.26
2019-04-25T00:41:11.607Z,14.27
2019-04-25T00:41:47.793Z,14.29
2019-04-25T00:42:23.888Z,14.27
2019-04-25T00:43:01.529Z,14.26
2019-04-25T00:43:37.722Z,14.26
2019-04-25T00:44:13.825Z,14.25
2019-04-25T00:44:51.278Z,14.25
2019-04-25T00:45:27.613Z,14.25
2019-04-25T00:46:03.758Z,14.25
2019-04-25T00:46:39.803Z,14.28
2019-04-25T00:47:15.925Z,14.27
2019-04-25T00:47:52.897Z,14.28
2019-04-25T00:48:29.038Z,14.29
2019-04-25T00:49:05.061Z,14.29
2019-04-25T00:49:43.839Z,14.28
2019-04-25T00:50:19.710Z,14.29
2019-04-25T00:50:55.757Z,14.26
2019-04-25T00:51:31.874Z,14.27
2019-04-25T00:52:07.925Z,14.27
2019-04-25T00:52:44.866Z,14.29
2019-04-25T00:53:21.255Z,14.28
2019-04-25T00:53:57.315Z,14.27
2019-04-25T00:54:33.360Z,14.26
2019-04-25T00:55:09.668Z,14.26
2019-04-25T00:55:46.440Z,14.23
2019-04-25T00:56:22.527Z,14.23
2019-04-25T00:56:58.663Z,14.23
2019-04-25T00:57:35.241Z,14.23
2019-04-25T00:58:12.932Z,14.23
2019-04-25T00:59:02.672Z,14.22
2019-04-25T00:59:41.848Z,14.23
2019-04-25T01:00:35.721Z,14.15
2019-04-25T01:01:25.291Z,14.14
2019-04-25T01:02:11.878Z,14.08
2019-04-25T01:02:49.532Z,14.05
2019-04-25T01:03:33.002Z,14.03
2019-04-25T01:04:09.055Z,14.06
2019-04-25T01:04:45.245Z,14.04
2019-04-25T01:05:21.683Z,14.07
2019-04-25T01:05:57.720Z,14.10
2019-04-25T01:06:33.755Z,14.10
2019-04-25T01:07:09.795Z,14.08
2019-04-25T01:07:45.866Z,14.08
2019-04-25T01:08:22.050Z,14.07
2019-04-25T01:08:59.057Z,14.06
2019-04-25T01:09:35.262Z,14.05
2019-04-25T01:10:13.374Z,14.03
2019-04-25T01:10:50.524Z,14.00
2019-04-25T01:11:27.198Z,13.98
2019-04-25T01:12:04.113Z,13.98
2019-04-25T01:12:41.708Z,13.98
2019-04-25T01:13:17.823Z,13.97
2019-04-25T01:13:54.454Z,13.93
2019-04-25T01:14:31.933Z,13.93
2019-04-25T01:15:09.671Z,13.91
2019-04-25T01:15:46.403Z,13.89
2019-04-25T01:16:22.409Z,13.86
2019-04-25T01:16:58.524Z,13.84
2019-04-25T01:17:34.542Z,13.84
2019-04-25T01:18:12.209Z,13.82
2019-04-25T01:18:48.745Z,13.77
2019-04-25T01:19:24.868Z,13.77
2019-04-25T01:20:00.898Z,13.74
2019-04-25T01:20:37.016Z,13.72
2019-04-25T01:21:14.140Z,13.72
2019-04-25T01:21:51.290Z,13.69
2019-04-25T01:22:27.441Z,13.66
2019-04-25T01:23:03.811Z,13.63
2019-04-25T01:23:39.892Z,13.63
2019-04-25T01:24:15.980Z,13.59
2019-04-25T01:24:52.020Z,13.58
2019-04-25T01:25:38.545Z,13.57
2019-04-25T01:26:06.419Z,13.57
2019-04-25T01:26:43.856Z,13.56
2019-04-25T01:27:20.003Z,13.54
2019-04-25T01:27:56.027Z,13.52
2019-04-25T01:28:33.565Z,13.51
2019-04-25T01:29:10.482Z,13.50
2019-04-25T01:29:46.684Z,13.47
2019-04-25T01:30:24.361Z,13.46
2019-04-25T01:31:00.760Z,13.43
2019-04-25T01:31:36.779Z,13.43
2019-04-25T01:32:14.452Z,13.42
2019-04-25T01:32:50.546Z,13.40
2019-04-25T01:33:26.969Z,13.39
2019-04-25T01:34:04.660Z,13.38
2019-04-25T01:34:44.169Z,13.40
2019-04-25T01:35:27.605Z,13.36
2019-04-25T01:36:07.824Z,13.34
2019-04-25T01:36:51.235Z,13.28
2019-04-25T01:37:28.900Z,13.21
2019-04-25T01:38:09.496Z,13.20
2019-04-25T01:38:56.147Z,13.21
2019-04-25T01:39:48.946Z,13.18
2019-04-25T01:40:35.560Z,13.13
2019-04-25T01:41:31.308Z,13.02
2019-04-25T01:42:15.012Z,12.97
2019-04-25T01:43:04.732Z,12.85
2019-04-25T01:43:57.241Z,12.86
2019-04-25T01:44:34.055Z,12.82
2019-04-25T01:45:10.475Z,12.48
2019-04-25T01:45:48.079Z,12.59
2019-04-25T01:46:25.589Z,12.65
2019-04-25T01:47:01.617Z,12.69
2019-04-25T01:47:37.643Z,12.73
2019-04-25T01:48:13.786Z,12.74
2019-04-25T01:48:50.170Z,12.77
2019-04-25T01:49:26.192Z,12.76
2019-04-25T01:50:03.788Z,12.77
2019-04-25T01:50:40.205Z,12.74
2019-04-25T01:51:16.272Z,12.74
2019-04-25T01:51:54.067Z,12.74
2019-04-25T01:52:30.052Z,12.74
2019-04-25T01:53:06.083Z,12.74
2019-04-25T01:53:42.126Z,12.73
2019-04-25T01:54:18.166Z,12.72
2019-04-25T01:54:55.663Z,12.72
2019-04-25T01:55:33.518Z,12.72
2019-04-25T01:56:09.618Z,12.68
2019-04-25T01:56:45.780Z,12.68
2019-04-25T01:57:21.813Z,12.67
2019-04-25T01:57:57.839Z,12.67
2019-04-25T01:58:33.940Z,12.67
2019-04-25T01:59:09.954Z,12.67
2019-04-25T01:59:46.157Z,12.66
2019-04-25T02:00:33.278Z,12.66
2019-04-25T02:01:09.547Z,12.63
2019-04-25T02:01:45.834Z,12.60
2019-04-25T02:02:23.665Z,12.62
2019-04-25T02:02:59.745Z,12.62
2019-04-25T02:03:35.864Z,12.61
2019-04-25T02:04:13.234Z,12.64
2019-04-25T02:04:49.355Z,12.63
2019-04-25T02:05:25.459Z,12.62
2019-04-25T02:06:01.745Z,12.62
2019-04-25T02:06:37.760Z,12.63
2019-04-25T02:07:13.871Z,12.61
2019-04-25T02:07:51.377Z,12.63
2019-04-25T02:08:27.556Z,12.62
2019-04-25T02:09:05.902Z,12.61
2019-04-25T02:09:43.660Z,12.62
2019-04-25T02:10:20.029Z,12.60
2019-04-25T02:10:58.141Z,12.60
2019-04-25T02:11:48.608Z,12.61
2019-04-25T02:12:27.325Z,12.60
2019-04-25T02:13:07.980Z,12.51
2019-04-25T02:13:43.789Z,12.53
2019-04-25T02:14:19.638Z,12.26
2019-04-25T02:14:56.625Z,12.36
2019-04-25T02:15:33.498Z,12.44
2019-04-25T02:16:09.860Z,12.51
2019-04-25T02:16:45.966Z,12.53
2019-04-25T02:17:24.066Z,12.56
2019-04-25T02:18:00.456Z,12.58
2019-04-25T02:18:37.138Z,12.57
2019-04-25T02:19:14.499Z,12.59
2019-04-25T02:19:52.002Z,12.60
2019-04-25T02:20:28.173Z,12.60
2019-04-25T02:21:04.538Z,12.60
2019-04-25T02:21:40.584Z,12.58
2019-04-25T02:22:16.611Z,12.60
2019-04-25T02:22:54.472Z,12.60
2019-04-25T02:23:30.411Z,12.61
2019-04-25T02:24:06.515Z,12.61
2019-04-25T02:24:43.700Z,12.60
2019-04-25T02:25:19.753Z,12.60
2019-04-25T02:26:08.951Z,12.59
2019-04-25T02:26:34.077Z,12.59
2019-04-25T02:27:10.286Z,12.57
2019-04-25T02:27:46.308Z,12.55
2019-04-25T02:28:24.039Z,12.54
2019-04-25T02:29:00.576Z,12.54
2019-04-25T02:29:36.634Z,12.54
2019-04-25T02:30:15.527Z,12.53
2019-04-25T02:30:54.727Z,12.53
2019-04-25T02:31:29.473Z,12.53
2019-04-25T02:32:09.104Z,12.53
2019-04-25T02:32:44.278Z,12.54
2019-04-25T02:33:20.409Z,12.53
2019-04-25T02:33:58.804Z,12.55
2019-04-25T02:34:34.859Z,12.55
2019-04-25T02:35:11.261Z,12.55
2019-04-25T02:35:47.355Z,12.55
2019-04-25T02:36:24.683Z,12.57
2019-04-25T02:37:04.225Z,12.51
2019-04-25T02:37:38.570Z,12.59
2019-04-25T02:38:16.910Z,12.58
2019-04-25T02:38:54.159Z,12.59
2019-04-25T02:39:30.228Z,12.59
2019-04-25T02:40:08.450Z,12.58
2019-04-25T02:40:45.623Z,12.59
2019-04-25T02:41:21.803Z,12.56
2019-04-25T02:42:01.045Z,12.57
2019-04-25T02:42:36.905Z,12.57
2019-04-25T02:43:14.210Z,12.55
2019-04-25T02:43:50.482Z,12.54
2019-04-25T02:44:26.718Z,12.53
2019-04-25T02:45:08.226Z,12.54
2019-04-25T02:45:44.322Z,12.56
2019-04-25T02:46:37.416Z,12.53
2019-04-25T02:47:15.085Z,12.55
2019-04-25T02:48:08.721Z,12.44
2019-04-25T02:49:04.145Z,12.47
2019-04-25T02:49:41.577Z,12.36
2019-04-25T02:50:35.987Z,12.32
2019-04-25T02:51:16.584Z,12.35
2019-04-25T02:51:59.254Z,12.30
2019-04-25T02:52:38.997Z,12.33
2019-04-25T02:53:36.308Z,12.35
2019-04-25T02:54:09.481Z,12.35
2019-04-25T02:54:45.494Z,12.30
2019-04-25T02:55:31.125Z,12.33
2019-04-25T02:55:59.751Z,12.37
2019-04-25T02:56:38.871Z,12.39
2019-04-25T02:57:14.612Z,12.42
2019-04-25T02:57:50.794Z,12.42
2019-04-25T02:58:26.968Z,12.44
2019-04-25T02:59:06.501Z,12.44
2019-04-25T02:59:40.820Z,12.45
2019-04-25T03:00:20.140Z,12.45
2019-04-25T03:01:08.002Z,12.46
2019-04-25T03:01:36.273Z,12.45
2019-04-25T03:02:12.332Z,12.42
2019-04-25T03:02:48.363Z,12.44
2019-04-25T03:03:24.642Z,12.47
2019-04-25T03:04:00.992Z,12.46
2019-04-25T03:04:37.016Z,12.47
2019-04-25T03:05:14.295Z,12.48
2019-04-25T03:05:50.580Z,12.52
2019-04-25T03:06:26.630Z,12.49
2019-04-25T03:07:07.408Z,12.54
2019-04-25T03:07:40.592Z,12.54
2019-04-25T03:08:16.710Z,12.56
2019-04-25T03:08:54.277Z,12.57
2019-04-25T03:09:30.546Z,12.58
2019-04-25T03:10:09.811Z,12.60
2019-04-25T03:10:46.091Z,12.61
2019-04-25T03:11:24.306Z,12.59
2019-04-25T03:11:59.989Z,12.63
2019-04-25T03:12:36.845Z,12.63
2019-04-25T03:13:14.854Z,12.66
2019-04-25T03:13:50.849Z,12.66
2019-04-25T03:14:26.895Z,12.65
2019-04-25T03:15:06.354Z,12.67
2019-04-25T03:15:40.805Z,12.67
2019-04-25T03:16:16.817Z,12.66
2019-04-25T03:16:54.317Z,12.67
2019-04-25T03:17:30.572Z,12.67
2019-04-25T03:18:11.166Z,12.67
2019-04-25T03:18:47.155Z,12.71
2019-04-25T03:19:34.189Z,12.72
2019-04-25T03:20:14.848Z,12.72
2019-04-25T03:20:54.714Z,12.66
2019-04-25T03:21:32.036Z,12.68
2019-04-25T03:22:11.730Z,12.69
2019-04-25T03:22:47.529Z,12.74
2019-04-25T03:23:35.456Z,12.77
2019-04-25T03:24:16.373Z,12.79
2019-04-25T03:24:50.256Z,12.74
2019-04-25T03:25:26.289Z,12.79
2019-04-25T03:26:04.543Z,12.82
2019-04-25T03:26:40.803Z,12.84
2019-04-25T03:27:16.968Z,12.86
2019-04-25T03:27:54.113Z,12.86
2019-04-25T03:28:30.803Z,12.90
2019-04-25T03:29:07.294Z,12.88
2019-04-25T03:29:45.502Z,12.91
2019-04-25T03:30:22.057Z,12.92
2019-04-25T03:31:01.395Z,12.93
2019-04-25T03:31:36.003Z,12.98
2019-04-25T03:32:16.459Z,12.99
2019-04-25T03:32:51.622Z,12.99
2019-04-25T03:33:27.565Z,12.98
2019-04-25T03:34:07.939Z,13.01
2019-04-25T03:34:41.342Z,13.03
2019-04-25T03:35:17.360Z,13.04
2019-04-25T03:35:54.780Z,13.04
2019-04-25T03:36:30.820Z,13.06
2019-04-25T03:37:07.665Z,13.07
2019-04-25T03:37:43.765Z,13.08
2019-04-25T03:38:19.767Z,13.10
2019-04-25T03:38:55.900Z,13.13
2019-04-25T03:39:33.501Z,13.13
2019-04-25T03:40:09.729Z,13.13
2019-04-25T03:40:45.745Z,13.14
2019-04-25T03:41:21.781Z,13.17
2019-04-25T03:41:58.798Z,13.16
2019-04-25T03:42:34.817Z,13.18
2019-04-25T03:43:10.822Z,13.20
2019-04-25T03:43:46.848Z,13.22
2019-04-25T03:44:23.713Z,13.22
2019-04-25T03:45:01.467Z,13.22
2019-04-25T03:45:37.638Z,13.20
2019-04-25T03:46:14.239Z,13.25
2019-04-25T03:46:50.392Z,13.25
2019-04-25T03:47:26.437Z,13.29
2019-04-25T03:48:03.874Z,13.33
2019-04-25T03:48:40.210Z,13.36
2019-04-25T03:49:16.236Z,13.36
2019-04-25T03:49:53.499Z,13.40
2019-04-25T03:50:30.872Z,13.40
2019-04-25T03:51:07.903Z,13.41
2019-04-25T03:51:44.128Z,13.43
2019-04-25T03:52:20.149Z,13.43
2019-04-25T03:52:56.188Z,13.46
2019-04-25T03:53:33.704Z,13.45
2019-04-25T03:54:10.599Z,13.46
2019-04-25T03:54:46.639Z,13.47
2019-04-25T03:55:24.078Z,13.48
2019-04-25T03:56:00.247Z,13.50
2019-04-25T03:56:36.274Z,13.52
2019-04-25T03:57:14.333Z,13.54
2019-04-25T03:57:51.309Z,13.56
2019-04-25T03:58:27.325Z,13.57
2019-04-25T03:59:05.859Z,13.59
2019-04-25T03:59:43.557Z,13.60
2019-04-25T04:00:19.806Z,13.61
2019-04-25T04:00:55.979Z,13.60
2019-04-25T04:01:32.005Z,13.63
2019-04-25T04:02:09.056Z,13.65
2019-04-25T04:02:45.148Z,13.68
2019-04-25T04:03:21.200Z,13.71
2019-04-25T04:03:57.245Z,13.74
2019-04-25T04:04:33.591Z,13.76
2019-04-25T04:05:09.676Z,13.78
2019-04-25T04:05:45.691Z,13.81
2019-04-25T04:06:21.801Z,13.84
2019-04-25T04:06:57.839Z,13.87
2019-04-25T04:07:33.873Z,13.90
2019-04-25T04:08:11.918Z,13.92
2019-04-25T04:08:47.955Z,13.95
2019-04-25T04:09:24.227Z,13.96
2019-04-25T04:10:00.325Z,14.00
2019-04-25T04:10:36.365Z,14.01
2019-04-25T04:11:14.146Z,14.05
2019-04-25T04:11:50.225Z,14.06
2019-04-25T04:12:26.259Z,14.07
2019-04-25T04:13:02.287Z,14.10
2019-04-25T04:13:38.321Z,14.12
2019-04-25T04:14:15.639Z,14.15
2019-04-25T04:14:53.630Z,14.15
2019-04-25T04:15:29.781Z,14.17
2019-04-25T04:16:06.524Z,14.18
2019-04-25T04:16:44.412Z,14.19
2019-04-25T04:17:40.466Z,14.22
2019-04-25T04:18:36.032Z,14.24
2019-04-25T04:19:13.121Z,14.18
2019-04-25T04:19:54.228Z,14.12
2019-04-25T04:20:40.664Z,14.17
2019-04-25T04:21:21.358Z,14.19
2019-04-25T04:21:58.414Z,14.20
2019-04-25T04:22:53.331Z,13.97
2019-04-25T04:23:34.041Z,14.09
2019-04-25T04:24:14.985Z,14.07
2019-04-25T04:24:53.866Z,14.13
2019-04-25T04:25:29.972Z,14.18
2019-04-25T04:26:06.256Z,14.23
2019-04-25T04:26:43.121Z,14.28
2019-04-25T04:27:19.235Z,14.28
2019-04-25T04:27:55.333Z,14.19
2019-04-25T04:28:33.719Z,14.31
2019-04-25T04:29:10.107Z,14.33
2019-04-25T04:29:46.219Z,14.35
2019-04-25T04:30:22.219Z,14.34
2019-04-25T04:30:58.296Z,14.40
2019-04-25T04:31:34.341Z,14.45
2019-04-25T04:32:10.633Z,14.48
2019-04-25T04:32:46.688Z,14.48
2019-04-25T04:33:30.246Z,14.52
2019-04-25T04:34:00.502Z,14.52
2019-04-25T04:34:36.548Z,14.55
2019-04-25T04:35:14.761Z,14.58
2019-04-25T04:35:51.248Z,14.61
2019-04-25T04:36:27.283Z,14.64
2019-04-25T04:37:03.771Z,14.66
2019-04-25T04:37:39.876Z,14.70
2019-04-25T04:38:16.469Z,14.73
2019-04-25T04:38:54.205Z,14.73
2019-04-25T04:39:30.370Z,14.77
2019-04-25T04:40:07.932Z,14.77
2019-04-25T04:40:44.266Z,14.79
2019-04-25T04:41:20.287Z,14.84
2019-04-25T04:41:56.477Z,14.87
2019-04-25T04:42:33.709Z,14.91
2019-04-25T04:43:09.739Z,14.94
2019-04-25T04:43:45.797Z,14.98
2019-04-25T04:44:21.899Z,15.02
2019-04-25T04:44:57.927Z,15.06
2019-04-25T04:45:34.519Z,15.10
2019-04-25T04:46:10.602Z,15.13
2019-04-25T04:46:48.250Z,15.16
2019-04-25T04:47:24.282Z,15.18
2019-04-25T04:48:00.367Z,15.22
2019-04-25T04:48:36.395Z,15.23
2019-04-25T04:49:14.178Z,15.25
2019-04-25T04:49:50.206Z,15.28
2019-04-25T04:50:26.255Z,15.31
2019-04-25T04:51:03.402Z,15.34
2019-04-25T04:51:39.499Z,15.36
2019-04-25T04:52:15.866Z,15.36
2019-04-25T04:52:53.996Z,15.40
2019-04-25T04:53:30.182Z,15.43
2019-04-25T04:54:07.167Z,15.46
2019-04-25T04:54:43.931Z,15.50
2019-04-25T04:55:20.073Z,15.54
2019-04-25T04:55:56.168Z,15.58
2019-04-25T04:56:34.040Z,15.63
2019-04-25T04:57:25.717Z,15.66
2019-04-25T04:57:47.666Z,15.67
2019-04-25T04:58:25.122Z,15.70
2019-04-25T04:59:01.207Z,15.73
2019-04-25T04:59:37.239Z,15.76
2019-04-25T05:00:14.558Z,15.79
2019-04-25T05:00:51.118Z,15.83
2019-04-25T05:01:28.951Z,15.86
2019-04-25T05:02:14.628Z,15.90
2019-04-25T05:03:00.552Z,15.93
2019-04-25T05:03:38.210Z,15.96
2019-04-25T05:04:16.268Z,15.98
2019-04-25T05:05:06.593Z,16.00
2019-04-25T05:06:00.399Z,16.01
2019-04-25T05:06:41.014Z,16.04
2019-04-25T05:07:25.334Z,16.06
2019-04-25T05:08:09.006Z,16.11
2019-04-25T05:08:46.710Z,16.16
2019-04-25T05:09:24.354Z,16.20
2019-04-25T05:10:00.389Z,16.27
2019-04-25T05:10:36.443Z,16.32
2019-04-25T05:11:15.226Z,16.38
2019-04-25T05:11:50.251Z,16.44
2019-04-25T05:12:26.264Z,16.48
2019-04-25T05:13:02.314Z,16.52
2019-04-25T05:13:38.325Z,16.58
2019-04-25T05:14:15.351Z,16.62
2019-04-25T05:14:53.291Z,16.68
2019-04-25T05:15:29.689Z,16.74
2019-04-25T05:16:05.730Z,16.78
2019-04-25T05:16:43.236Z,16.83
2019-04-25T05:17:19.699Z,16.88
2019-04-25T05:17:55.753Z,16.94
2019-04-25T05:18:37.085Z,16.99
2019-04-25T05:19:09.489Z,17.04
2019-04-25T05:19:45.513Z,17.08
2019-04-25T05:20:22.204Z,17.13
2019-04-25T05:20:58.269Z,17.19
2019-04-25T05:21:34.300Z,17.25
2019-04-25T05:22:10.353Z,17.31
2019-04-25T05:22:46.372Z,17.39
2019-04-25T05:23:23.439Z,17.44
2019-04-25T05:24:01.124Z,17.52
2019-04-25T05:24:37.171Z,17.58
2019-04-25T05:25:15.291Z,17.67
2019-04-25T05:25:50.934Z,17.75
2019-04-25T05:26:27.047Z,17.84
2019-04-25T05:27:03.864Z,17.91
2019-04-25T05:27:56.778Z,17.98
2019-04-25T05:28:18.515Z,18.08
2019-04-25T05:28:55.296Z,18.18
2019-04-25T05:29:31.490Z,18.27
2019-04-25T05:30:09.614Z,18.38
2019-04-25T05:30:47.323Z,18.47
2019-04-25T05:31:27.462Z,18.56
2019-04-25T05:32:04.253Z,18.66
2019-04-25T05:32:40.462Z,18.77
2019-04-25T05:33:19.101Z,18.87
2019-04-25T05:33:54.250Z,18.95
2019-04-25T05:34:30.287Z,19.06
2019-04-25T05:35:06.791Z,19.15
2019-04-25T05:35:44.057Z,19.24
2019-04-25T05:36:21.823Z,19.34
2019-04-25T05:36:57.918Z,19.40
2019-04-25T05:37:33.969Z,19.47
2019-04-25T05:38:10.035Z,19.53
2019-04-25T05:38:46.061Z,19.63
2019-04-25T05:39:23.729Z,19.74
2019-04-25T05:39:59.829Z,19.86
2019-04-25T05:40:37.512Z,19.96
2019-04-25T05:41:18.215Z,20.06
2019-04-25T05:41:58.566Z,20.17
2019-04-25T05:42:51.317Z,20.28
2019-04-25T05:43:28.935Z,20.38
2019-04-25T05:44:05.249Z,20.52
2019-04-25T05:44:41.261Z,20.60
2019-04-25T05:45:19.843Z,20.68
2019-04-25T05:45:55.973Z,20.76
2019-04-25T05:46:32.012Z,20.88
2019-04-25T05:47:08.032Z,20.99
2019-04-25T05:47:44.336Z,21.06
2019-04-25T05:48:21.089Z,21.14
2019-04-25T05:48:57.276Z,21.23
2019-04-25T05:49:34.272Z,21.33
2019-04-25T05:50:10.377Z,21.42
2019-04-25T05:50:46.390Z,21.51
2019-04-25T05:51:23.953Z,21.60
2019-04-25T05:52:00.186Z,21.70
2019-04-25T05:52:36.341Z,21.78
2019-04-25T05:53:14.098Z,21.85
2019-04-25T05:53:51.175Z,21.92
2019-04-25T05:54:27.254Z,21.97
2019-04-25T05:55:03.981Z,22.02
2019-04-25T05:55:40.083Z,22.09
2019-04-25T05:56:16.516Z,22.19
2019-04-25T05:56:53.761Z,22.27
2019-04-25T05:57:29.847Z,22.36
2019-04-25T05:58:05.868Z,22.44
2019-04-25T05:58:43.862Z,22.51
2019-04-25T05:59:19.619Z,22.58
2019-04-25T05:59:55.716Z,22.68
2019-04-25T06:00:31.748Z,22.78
2019-04-25T06:01:07.806Z,22.89
2019-04-25T06:01:43.836Z,23.01
2019-04-25T06:02:19.858Z,23.09
2019-04-25T06:02:55.978Z,23.18
2019-04-25T06:03:33.822Z,23.23
2019-04-25T06:04:09.734Z,23.33
2019-04-25T06:04:45.769Z,23.48
2019-04-25T06:05:23.429Z,23.59
2019-04-25T06:05:59.608Z,23.71
2019-04-25T06:06:36.812Z,23.85
2019-04-25T06:07:14.479Z,23.93
2019-04-25T06:07:50.602Z,24.01
2019-04-25T06:08:28.273Z,24.07
2019-04-25T06:09:24.067Z,24.10
2019-04-25T06:10:18.104Z,24.19
2019-04-25T06:10:58.819Z,24.41
2019-04-25T06:11:35.895Z,24.61
2019-04-25T06:12:28.407Z,24.91
2019-04-25T06:13:18.152Z,24.92
2019-04-25T06:14:05.608Z,25.05
2019-04-25T06:14:43.299Z,25.22
2019-04-25T06:15:21.680Z,25.31
2019-04-25T06:16:00.022Z,25.39
2019-04-25T06:16:37.483Z,25.48
2019-04-25T06:17:32.131Z,25.61
2019-04-25T06:18:16.215Z,25.65
2019-04-25T06:19:11.297Z,25.78
2019-04-25T06:19:43.436Z,25.78
2019-04-25T06:20:21.526Z,25.84
2019-04-25T06:20:57.914Z,25.84
2019-04-25T06:21:33.961Z,25.90
2019-04-25T06:22:18.439Z,25.94
2019-04-25T06:22:59.779Z,25.93
2019-04-25T06:23:54.416Z,26.12
2019-04-25T06:24:33.895Z,26.17
2019-04-25T06:25:13.768Z,26.20
2019-04-25T06:25:49.401Z,26.13
2019-04-25T06:26:34.127Z,26.12
2019-04-25T06:27:16.891Z,26.21
2019-04-25T06:27:59.220Z,26.25
2019-04-25T06:28:35.403Z,26.46
2019-04-25T06:29:11.422Z,26.65
2019-04-25T06:29:58.094Z,26.91
2019-04-25T06:30:28.366Z,26.91
2019-04-25T06:31:09.920Z,26.95
2019-04-25T06:31:43.803Z,27.08
2019-04-25T06:32:21.385Z,27.08
2019-04-25T06:32:57.491Z,27.25
2019-04-25T06:33:33.958Z,27.25
2019-04-25T06:34:10.116Z,27.38
2019-04-25T06:34:46.192Z,27.45
2019-04-25T06:35:24.489Z,27.58
2019-04-25T06:36:00.021Z,27.72
2019-04-25T06:36:36.060Z,27.72
2019-04-25T06:37:13.763Z,27.84
2019-04-25T06:37:49.893Z,27.95
2019-04-25T06:38:27.244Z,28.08
2019-04-25T06:39:04.164Z,28.15
2019-04-25T06:39:41.776Z,28.27
2019-04-25T06:40:17.890Z,28.43
2019-04-25T06:40:53.915Z,28.47
2019-04-25T06:41:29.926Z,28.53
2019-04-25T06:42:05.947Z,28.60
2019-04-25T06:42:43.422Z,28.70
2019-04-25T06:43:19.649Z,28.76
2019-04-25T06:43:57.301Z,28.76
2019-04-25T06:44:50.893Z,28.89
2019-04-25T06:45:28.916Z,29.07
2019-04-25T06:46:15.308Z,29.20
2019-04-25T06:46:53.529Z,29.24
2019-04-25T06:47:36.986Z,29.32
2019-04-25T06:48:25.014Z,29.36
2019-04-25T06:49:03.531Z,29.39
2019-04-25T06:49:41.290Z,29.55
2019-04-25T06:50:17.356Z,29.68
2019-04-25T06:50:53.786Z,29.82
2019-04-25T06:51:49.516Z,29.92
2019-04-25T06:52:29.475Z,29.99
2019-04-25T06:53:03.505Z,30.21
2019-04-25T06:53:41.278Z,30.31
2019-04-25T06:54:17.321Z,30.22
2019-04-25T06:54:53.367Z,30.08
2019-04-25T06:55:30.183Z,29.98
2019-04-25T06:56:06.426Z,29.98
2019-04-25T06:56:43.470Z,29.86
2019-04-25T06:57:19.645Z,29.81
2019-04-25T06:57:55.872Z,29.60
2019-04-25T06:58:32.234Z,29.46
2019-04-25T06:59:09.931Z,29.32
2019-04-25T06:59:45.961Z,29.16
2019-04-25T07:00:24.261Z,29.10
2019-04-25T07:01:01.059Z,29.11
2019-04-25T07:01:38.313Z,29.14
2019-04-25T07:02:14.767Z,29.15
2019-04-25T07:02:50.816Z,29.20
2019-04-25T07:03:27.131Z,29.32
2019-04-25T07:04:04.061Z,29.40
2019-04-25T07:04:41.196Z,29.44
2019-04-25T07:05:26.616Z,29.39
2019-04-25T07:05:55.291Z,29.41
2019-04-25T07:06:31.416Z,29.44
2019-04-25T07:07:12.382Z,29.46
2019-04-25T07:07:45.481Z,29.45
2019-04-25T07:08:25.428Z,29.48
2019-04-25T07:09:00.336Z,29.35
2019-04-25T07:09:36.685Z,29.38
2019-04-25T07:10:13.352Z,29.46
2019-04-25T07:10:49.484Z,29.38
2019-04-25T07:11:26.787Z,29.22
2019-04-25T07:12:03.555Z,29.08
2019-04-25T07:12:39.798Z,29.19
2019-04-25T07:13:15.832Z,29.28
2019-04-25T07:13:53.590Z,29.50
2019-04-25T07:14:29.764Z,29.26
2019-04-25T07:15:09.818Z,28.79
2019-04-25T07:15:45.987Z,28.87
2019-04-25T07:16:24.054Z,29.14
2019-04-25T07:16:59.720Z,29.22
2019-04-25T07:17:36.041Z,29.23
2019-04-25T07:18:13.958Z,29.27
2019-04-25T07:18:50.073Z,29.20
2019-04-25T07:19:27.091Z,29.27
2019-04-25T07:20:05.677Z,29.28
2019-04-25T07:20:43.211Z,29.30
2019-04-25T07:21:20.359Z,29.30
2019-04-25T07:21:56.482Z,29.29
2019-04-25T07:22:34.774Z,29.20
2019-04-25T07:23:10.310Z,29.16
2019-04-25T07:23:46.458Z,28.99
2019-04-25T07:24:23.763Z,28.91
2019-04-25T07:25:00.312Z,29.07
2019-04-25T07:25:38.044Z,29.33
2019-04-25T07:26:16.055Z,29.50
2019-04-25T07:27:10.127Z,29.68
2019-04-25T07:27:50.771Z,29.54
2019-04-25T07:28:31.472Z,29.77
2019-04-25T07:29:14.927Z,29.92
2019-04-25T07:29:53.872Z,30.03
2019-04-25T07:30:49.914Z,30.04
2019-04-25T07:31:28.937Z,30.03
2019-04-25T07:32:24.343Z,30.04
2019-04-25T07:33:03.761Z,29.67
2019-04-25T07:33:44.630Z,29.59
2019-04-25T07:34:25.295Z,29.44
2019-04-25T07:35:03.482Z,29.32
2019-04-25T07:35:40.733Z,29.33
2019-04-25T07:36:16.833Z,29.54
2019-04-25T07:36:53.472Z,29.77
2019-04-25T07:37:29.819Z,29.76
2019-04-25T07:38:05.963Z,30.02
2019-04-25T07:38:43.493Z,30.13
2019-04-25T07:39:20.641Z,29.89
2019-04-25T07:39:56.688Z,30.12
2019-04-25T07:40:34.036Z,30.18
2019-04-25T07:41:10.511Z,30.37
2019-04-25T07:41:46.628Z,30.17
2019-04-25T07:42:23.918Z,30.39
2019-04-25T07:43:00.192Z,30.38
2019-04-25T07:43:36.341Z,30.36
2019-04-25T07:44:12.480Z,30.59
2019-04-25T07:44:52.626Z,30.69
2019-04-25T07:45:27.022Z,30.82
2019-04-25T07:46:03.479Z,30.89
2019-04-25T07:46:40.138Z,30.82
2019-04-25T07:47:16.324Z,30.89
2019-04-25T07:47:54.048Z,31.06
2019-04-25T07:48:30.246Z,31.10
2019-04-25T07:49:06.274Z,31.22
2019-04-25T07:49:43.286Z,31.47
2019-04-25T07:50:19.369Z,31.69
2019-04-25T07:50:55.394Z,31.99
2019-04-25T07:51:32.880Z,32.18
2019-04-25T07:52:11.474Z,31.63
2019-04-25T07:52:46.997Z,31.84
2019-04-25T07:53:24.316Z,31.63
2019-04-25T07:54:00.921Z,31.40
2019-04-25T07:54:36.974Z,31.03
2019-04-25T07:55:13.742Z,31.33
2019-04-25T07:55:49.887Z,31.46
2019-04-25T07:56:25.976Z,31.64
2019-04-25T07:57:03.492Z,31.74
2019-04-25T07:57:39.785Z,31.78
2019-04-25T07:58:15.857Z,31.94
2019-04-25T07:58:53.187Z,31.98
2019-04-25T07:59:29.697Z,31.56
2019-04-25T08:00:13.754Z,31.68
2019-04-25T08:00:50.249Z,31.69
2019-04-25T08:01:26.881Z,31.36
2019-04-25T08:02:04.022Z,31.13
2019-04-25T08:02:40.048Z,31.23
2019-04-25T08:03:16.067Z,31.24
2019-04-25T08:03:53.644Z,31.27
2019-04-25T08:04:29.827Z,30.98
2019-04-25T08:05:08.181Z,31.32
2019-04-25T08:05:44.218Z,31.64
2019-04-25T08:06:22.120Z,31.70
2019-04-25T08:06:58.197Z,31.79
2019-04-25T08:07:37.838Z,31.89
2019-04-25T08:08:13.946Z,32.07